createdAt,value
2022-10-14T00:01:27.191Z,70.27
2022-10-14T00:04:06.374Z,70.37
2022-10-14T00:06:34.714Z,70.31
2022-10-14T00:09:06.362Z,70.23
2022-10-14T00:11:36.566Z,70.38
2022-10-14T00:14:09.207Z,70.48
2022-10-14T00:16:40.367Z,70.38
2022-10-14T00:19:12.750Z,70.39
2022-10-14T00:21:43.723Z,70.40
2022-10-14T00:24:14.391Z,70.54
2022-10-14T00:26:42.917Z,70.47
2022-10-14T00:29:14.805Z,70.57
2022-10-14T00:31:42.831Z,70.79
2022-10-14T00:34:13.188Z,70.71
2022-10-14T00:36:42.026Z,70.84
2022-10-14T00:39:11.639Z,70.76
2022-10-14T00:41:41.353Z,71.10
2022-10-14T00:44:15.477Z,70.91
2022-10-14T00:46:46.218Z,71.28
2022-10-14T00:49:31.745Z,71.15
2022-10-14T00:52:08.055Z,71.33
2022-10-14T00:54:44.273Z,71.46
2022-10-14T00:57:13.186Z,71.43
2022-10-14T00:59:41.913Z,71.55
2022-10-14T01:02:11.517Z,71.55
2022-10-14T01:04:42.922Z,71.85
2022-10-14T01:07:14.025Z,72.00
2022-10-14T01:09:54.965Z,71.95
2022-10-14T01:12:37.670Z,72.11
2022-10-14T01:15:11.827Z,72.07
2022-10-14T01:18:08.705Z,72.13
2022-10-14T01:20:56.106Z,72.15
2022-10-14T01:24:12.717Z,72.55
2022-10-14T01:26:56.992Z,72.53
2022-10-14T01:29:40.252Z,72.61
2022-10-14T01:32:16.819Z,72.82
2022-10-14T01:34:56.739Z,72.92
2022-10-14T01:37:29.280Z,73.02
2022-10-14T01:40:03.209Z,73.19
2022-10-14T01:42:34.969Z,72.99
2022-10-14T01:45:23.725Z,73.14
2022-10-14T01:47:54.888Z,73.30
2022-10-14T01:50:25.787Z,73.52
2022-10-14T01:53:04.242Z,73.58
2022-10-14T01:55:38.199Z,73.75
2022-10-14T01:58:07.908Z,73.83
2022-10-14T02:00:36.644Z,73.93
2022-10-14T02:03:05.068Z,73.89
2022-10-14T02:05:41.541Z,74.19
2022-10-14T02:08:42.108Z,74.17
2022-10-14T02:11:18.013Z,73.91
2022-10-14T02:14:17.805Z,74.03
2022-10-14T02:17:01.828Z,74.11
2022-10-14T02:19:35.244Z,74.35
2022-10-14T02:22:31.870Z,74.45
2022-10-14T02:25:33.899Z,74.40
2022-10-14T02:28:06.131Z,74.63
2022-10-14T02:30:44.096Z,74.44
2022-10-14T02:33:13.307Z,74.53
2022-10-14T02:35:43.964Z,74.50
2022-10-14T02:38:12.236Z,74.67
2022-10-14T02:40:45.214Z,74.55
2022-10-14T02:43:13.651Z,74.76
2022-10-14T02:45:43.893Z,74.89
2022-10-14T02:48:12.605Z,74.72
2022-10-14T02:50:42.408Z,74.62
2022-10-14T02:53:14.738Z,74.67
2022-10-14T02:55:45.275Z,74.59
2022-10-14T02:58:13.691Z,74.95
2022-10-14T03:00:42.051Z,74.94
2022-10-14T03:03:10.436Z,75.22
2022-10-14T03:05:43.031Z,75.10
2022-10-14T03:08:14.175Z,75.20
2022-10-14T03:10:45.710Z,75.26
2022-10-14T03:13:14.702Z,75.25
2022-10-14T03:15:44.549Z,75.18
2022-10-14T03:18:12.765Z,75.58
2022-10-14T03:20:44.983Z,75.50
2022-10-14T03:23:14.741Z,75.37
2022-10-14T03:25:45.360Z,75.15
2022-10-14T03:28:19.760Z,75.33
2022-10-14T03:31:03.408Z,75.30
2022-10-14T03:33:55.426Z,75.19
2022-10-14T03:36:24.352Z,75.34
2022-10-14T03:38:54.614Z,75.33
2022-10-14T03:41:36.316Z,75.23
2022-10-14T03:44:06.528Z,75.25
2022-10-14T03:46:35.640Z,75.02
2022-10-14T03:49:04.161Z,75.19
2022-10-14T03:51:33.236Z,75.31
2022-10-14T03:54:13.377Z,75.33
2022-10-14T03:56:41.557Z,75.27
2022-10-14T03:59:10.236Z,75.29
2022-10-14T04:01:41.299Z,75.38
2022-10-14T04:04:16.808Z,75.52
2022-10-14T04:06:46.195Z,75.60
2022-10-14T04:09:14.644Z,75.81
2022-10-14T04:11:42.990Z,75.67
2022-10-14T04:14:16.307Z,75.63
2022-10-14T04:16:50.062Z,75.88
2022-10-14T04:19:19.414Z,75.77
2022-10-14T04:21:47.584Z,75.84
2022-10-14T04:24:18.685Z,76.10
2022-10-14T04:26:54.065Z,76.22
2022-10-14T04:29:28.202Z,75.99
2022-10-14T04:32:04.532Z,76.03
2022-10-14T04:34:34.084Z,76.01
2022-10-14T04:37:02.259Z,76.37
2022-10-14T04:40:06.073Z,76.31
2022-10-14T04:42:34.475Z,76.48
2022-10-14T04:45:04.809Z,76.32
2022-10-14T04:47:48.584Z,76.19
2022-10-14T04:50:19.096Z,76.73
2022-10-14T04:53:11.927Z,76.68
2022-10-14T04:55:49.677Z,76.48
2022-10-14T04:58:18.572Z,76.70
2022-10-14T05:00:48.072Z,76.57
2022-10-14T05:03:35.363Z,76.53
2022-10-14T05:06:03.643Z,76.69
2022-10-14T05:08:31.919Z,76.80
2022-10-14T05:11:02.904Z,76.63
2022-10-14T05:13:42.728Z,76.68
2022-10-14T05:16:10.887Z,76.98
2022-10-14T05:18:39.800Z,77.13
2022-10-14T05:21:12.216Z,77.16
2022-10-14T05:23:59.679Z,77.28
2022-10-14T05:26:29.264Z,77.32
2022-10-14T05:28:58.062Z,77.30
2022-10-14T05:31:26.187Z,77.28
2022-10-14T05:34:05.608Z,77.40
2022-10-14T05:36:33.971Z,77.59
2022-10-14T05:39:03.255Z,77.70
2022-10-14T05:41:34.779Z,77.47
2022-10-14T05:44:03.891Z,77.74
2022-10-14T05:46:32.303Z,77.71
2022-10-14T05:49:02.639Z,77.69
2022-10-14T05:51:30.799Z,77.67
2022-10-14T05:54:04.316Z,77.74
2022-10-14T05:56:32.510Z,77.51
2022-10-14T05:59:00.623Z,77.56
2022-10-14T06:01:29.139Z,77.45
2022-10-14T06:03:57.334Z,77.52
2022-10-14T06:06:28.940Z,77.66
2022-10-14T06:08:57.459Z,77.69
2022-10-14T06:11:25.549Z,77.50
2022-10-14T06:13:53.951Z,77.24
2022-10-14T06:16:22.083Z,77.24
2022-10-14T06:18:54.207Z,77.08
2022-10-14T06:21:22.851Z,77.24
2022-10-14T06:23:51.011Z,76.87
2022-10-14T06:26:19.103Z,76.97
2022-10-14T06:28:47.185Z,76.94
2022-10-14T06:31:15.527Z,76.76
2022-10-14T06:33:44.546Z,76.63
2022-10-14T06:36:13.051Z,76.60
2022-10-14T06:38:41.166Z,76.60
2022-10-14T06:41:10.343Z,76.53
2022-10-14T06:43:38.635Z,76.24
2022-10-14T06:46:06.870Z,75.96
2022-10-14T06:48:35.322Z,75.85
2022-10-14T06:51:03.762Z,75.75
2022-10-14T06:53:31.963Z,75.51
2022-10-14T06:56:06.106Z,75.33
2022-10-14T06:58:34.150Z,75.37
2022-10-14T07:01:04.546Z,75.28
2022-10-14T07:03:41.771Z,75.07
2022-10-14T07:06:10.431Z,75.00
2022-10-14T07:08:38.786Z,75.01
2022-10-14T07:11:07.372Z,74.88
2022-10-14T07:13:36.017Z,75.03
2022-10-14T07:16:04.960Z,74.89
2022-10-14T07:18:33.295Z,74.63
2022-10-14T07:21:03.594Z,74.65
2022-10-14T07:23:32.098Z,74.60
2022-10-14T07:26:01.132Z,74.61
2022-10-14T07:28:30.244Z,74.17
2022-10-14T07:31:03.471Z,74.00
2022-10-14T07:33:32.472Z,73.74
2022-10-14T07:36:03.486Z,73.78
2022-10-14T07:38:31.831Z,73.26
2022-10-14T07:41:06.848Z,72.72
2022-10-14T07:43:36.142Z,72.73
2022-10-14T07:46:08.246Z,72.87
2022-10-14T07:48:52.598Z,72.40
2022-10-14T07:51:25.741Z,72.32
2022-10-14T07:53:55.799Z,72.17
2022-10-14T07:56:24.834Z,72.19
2022-10-14T07:58:53.469Z,72.27
2022-10-14T08:01:21.832Z,72.13
2022-10-14T08:03:50.614Z,71.77
2022-10-14T08:06:18.980Z,71.73
2022-10-14T08:08:47.362Z,71.50
2022-10-14T08:11:21.151Z,71.62
2022-10-14T08:13:50.253Z,71.70
2022-10-14T08:16:22.015Z,71.86
2022-10-14T08:18:51.231Z,72.02
2022-10-14T08:21:21.750Z,72.21
2022-10-14T08:23:50.051Z,72.12
2022-10-14T08:26:26.064Z,72.18
2022-10-14T08:28:55.606Z,72.31
2022-10-14T08:31:24.237Z,72.18
2022-10-14T08:33:53.127Z,72.11
2022-10-14T08:36:21.988Z,71.70
2022-10-14T08:38:52.691Z,71.72
2022-10-14T08:41:50.283Z,71.62
2022-10-14T08:44:23.399Z,71.25
2022-10-14T08:46:58.993Z,71.53
2022-10-14T08:49:55.464Z,71.27
2022-10-14T08:52:48.760Z,71.38
2022-10-14T08:55:23.901Z,71.52
2022-10-14T08:57:59.549Z,71.16
2022-10-14T09:00:31.331Z,71.33
2022-10-14T09:03:02.734Z,71.19
2022-10-14T09:05:31.376Z,70.78
2022-10-14T09:08:00.959Z,70.69
2022-10-14T09:10:39.881Z,70.70
2022-10-14T09:13:29.004Z,70.53
2022-10-14T09:16:04.014Z,70.25
2022-10-14T09:18:45.831Z,70.25
2022-10-14T09:21:51.694Z,70.44
2022-10-14T09:24:22.632Z,69.57
2022-10-14T09:26:58.972Z,69.61
2022-10-14T09:29:57.367Z,69.33
2022-10-14T09:32:41.010Z,69.55
2022-10-14T09:35:25.006Z,69.23
2022-10-14T09:37:53.501Z,69.01
2022-10-14T09:40:41.136Z,68.45
2022-10-14T09:43:09.323Z,67.67
2022-10-14T09:46:00.813Z,67.64
2022-10-14T09:48:28.971Z,67.57
2022-10-14T09:50:59.115Z,67.42
2022-10-14T09:53:47.228Z,67.14
2022-10-14T09:56:18.023Z,67.36
2022-10-14T09:58:55.532Z,67.11
2022-10-14T10:01:30.035Z,67.37
2022-10-14T10:04:37.115Z,67.30
2022-10-14T10:07:21.133Z,66.70
2022-10-14T10:10:01.391Z,66.67
2022-10-14T10:12:35.765Z,65.34
2022-10-14T10:15:06.987Z,63.49
2022-10-14T10:17:40.951Z,61.89
2022-10-14T10:20:33.834Z,59.67
2022-10-14T10:23:25.527Z,58.19
2022-10-14T10:25:54.016Z,57.86
2022-10-14T10:28:32.026Z,56.44
2022-10-14T10:31:09.549Z,56.12
2022-10-14T10:34:19.565Z,54.42
2022-10-14T10:37:08.622Z,53.33
2022-10-14T10:39:47.865Z,53.53
2022-10-14T10:42:28.245Z,53.86
2022-10-14T10:45:07.146Z,54.45
2022-10-14T10:48:08.893Z,54.56
2022-10-14T10:51:00.497Z,54.56
2022-10-14T10:53:50.658Z,54.50
2022-10-14T10:56:35.197Z,54.16
2022-10-14T10:59:21.503Z,54.67
2022-10-14T11:02:23.555Z,54.76
2022-10-14T11:05:01.037Z,55.21
2022-10-14T11:08:13.106Z,55.77
2022-10-14T11:11:12.653Z,56.23
2022-10-14T11:13:52.061Z,56.83
2022-10-14T11:16:42.859Z,56.92
2022-10-14T11:19:24.452Z,56.47
2022-10-14T11:22:10.709Z,56.30
2022-10-14T11:24:59.020Z,56.60
2022-10-14T11:27:37.413Z,56.60
2022-10-14T11:30:23.865Z,56.83
2022-10-14T11:33:10.616Z,56.90
2022-10-14T11:36:09.197Z,57.01
2022-10-14T11:39:08.604Z,56.67
2022-10-14T11:41:39.854Z,57.32
2022-10-14T11:44:14.884Z,57.40
2022-10-14T11:46:48.180Z,57.22
2022-10-14T11:49:25.204Z,56.85
2022-10-14T11:51:57.452Z,56.50
2022-10-14T11:54:38.472Z,56.74
2022-10-14T11:57:06.504Z,56.32
2022-10-14T12:00:16.677Z,56.46
2022-10-14T12:03:09.836Z,56.53
2022-10-14T12:05:51.511Z,56.72
2022-10-14T12:08:53.560Z,56.60
2022-10-14T12:11:46.716Z,57.10
2022-10-14T12:14:32.681Z,56.89
2022-10-14T12:17:05.821Z,56.34
2022-10-14T12:19:34.081Z,55.48
2022-10-14T12:22:17.029Z,55.74
2022-10-14T12:24:54.676Z,55.47
2022-10-14T12:27:27.123Z,55.61
2022-10-14T12:29:58.519Z,55.73
2022-10-14T12:32:28.258Z,55.46
2022-10-14T12:35:01.750Z,55.52
2022-10-14T12:37:38.122Z,56.18
2022-10-14T12:40:15.242Z,56.46
2022-10-14T12:42:44.493Z,56.52
2022-10-14T12:45:17.706Z,56.73
2022-10-14T12:47:46.359Z,56.65
2022-10-14T12:50:18.781Z,56.97
2022-10-14T12:52:57.196Z,57.22
2022-10-14T12:55:28.882Z,57.97
2022-10-14T12:58:05.091Z,58.13
2022-10-14T13:00:39.952Z,58.69
2022-10-14T13:03:22.327Z,58.96
2022-10-14T13:05:53.999Z,59.02
2022-10-14T13:08:25.718Z,59.20
2022-10-14T13:10:59.974Z,59.25
2022-10-14T13:13:41.937Z,58.74
2022-10-14T13:16:33.896Z,58.34
2022-10-14T13:19:04.946Z,57.12
2022-10-14T13:21:36.412Z,56.27
2022-10-14T13:24:31.051Z,55.34
2022-10-14T13:27:32.722Z,54.93
2022-10-14T13:30:07.863Z,55.06
2022-10-14T13:33:00.094Z,55.08
2022-10-14T13:35:47.479Z,53.83
2022-10-14T13:38:18.851Z,52.55
2022-10-14T13:40:56.591Z,51.70
2022-10-14T13:43:42.888Z,52.33
2022-10-14T13:46:16.701Z,53.08
2022-10-14T13:48:46.689Z,53.61
2022-10-14T13:51:24.405Z,54.13
2022-10-14T13:54:20.160Z,54.71
2022-10-14T14:03:01.022Z,54.34
2022-10-14T14:05:36.500Z,54.45
2022-10-14T14:08:35.354Z,54.14
2022-10-14T14:11:17.990Z,53.22
2022-10-14T14:13:58.959Z,53.58
2022-10-14T14:16:40.377Z,53.93
2022-10-14T14:19:24.702Z,54.28
2022-10-14T14:22:21.506Z,53.99
2022-10-14T14:24:50.450Z,54.46
2022-10-14T14:27:26.707Z,54.06
2022-10-14T14:29:55.343Z,54.40
2022-10-14T14:32:31.050Z,54.81
2022-10-14T14:35:00.850Z,54.77
2022-10-14T14:40:28.830Z,56.05
2022-10-14T14:43:03.232Z,56.31
2022-10-14T14:45:44.054Z,56.67
2022-10-14T14:48:15.284Z,57.21
2022-10-14T14:50:45.068Z,58.06
2022-10-14T14:53:29.959Z,58.37
2022-10-14T14:56:04.668Z,58.84
2022-10-14T14:58:50.866Z,59.36
2022-10-14T15:01:28.138Z,59.75
2022-10-14T15:04:13.435Z,60.25
2022-10-14T15:06:59.908Z,60.49
2022-10-14T15:09:36.958Z,60.86
2022-10-14T15:12:12.463Z,61.10
2022-10-14T15:14:47.956Z,61.56
2022-10-14T15:17:35.144Z,61.94
2022-10-14T15:20:03.944Z,62.27
2022-10-14T15:22:37.723Z,62.54
2022-10-14T15:25:11.329Z,62.96
2022-10-14T15:27:45.780Z,63.09
2022-10-14T15:30:36.930Z,63.56
2022-10-14T15:33:26.481Z,63.71
2022-10-14T15:35:57.953Z,64.17
2022-10-14T15:38:27.404Z,64.49
2022-10-14T15:40:56.245Z,64.59
2022-10-14T15:43:27.213Z,64.79
2022-10-14T15:46:18.392Z,65.09
2022-10-14T15:48:55.423Z,65.49
2022-10-14T15:51:28.509Z,65.85
2022-10-14T15:53:57.683Z,65.78
2022-10-14T15:56:26.385Z,66.20
2022-10-14T15:58:54.853Z,66.65
2022-10-14T16:01:23.984Z,66.75
2022-10-14T16:03:55.630Z,66.77
2022-10-14T16:06:24.685Z,66.90
2022-10-14T16:08:53.241Z,67.15
2022-10-14T16:11:29.295Z,67.58
2022-10-14T16:13:57.868Z,68.01
2022-10-14T16:16:33.081Z,68.01
2022-10-14T16:19:05.012Z,68.19
2022-10-14T16:21:33.683Z,68.11
2022-10-14T16:24:04.383Z,68.44
2022-10-14T16:26:32.892Z,68.87
2022-10-14T16:29:03.623Z,68.89
2022-10-14T16:31:32.131Z,69.42
2022-10-14T16:34:01.993Z,69.37
2022-10-14T16:36:30.227Z,69.76
2022-10-14T16:39:00.628Z,69.99
2022-10-14T16:41:31.132Z,70.01
2022-10-14T16:43:59.319Z,70.25
2022-10-14T16:46:47.791Z,70.58
2022-10-14T16:49:16.039Z,70.82
2022-10-14T16:51:45.148Z,70.75
2022-10-14T16:54:13.245Z,71.04
2022-10-14T16:56:53.854Z,70.75
2022-10-14T16:59:24.614Z,71.10
2022-10-14T17:01:53.375Z,71.35
2022-10-14T17:04:22.480Z,71.47
2022-10-14T17:06:59.078Z,71.87
2022-10-14T17:09:28.091Z,71.88
2022-10-14T17:11:59.926Z,72.18
2022-10-14T17:14:31.395Z,72.11
2022-10-14T17:17:01.054Z,72.53
2022-10-14T17:19:29.552Z,72.67
2022-10-14T17:21:57.798Z,72.72
2022-10-14T17:24:26.616Z,72.96
2022-10-14T17:26:55.045Z,73.18
2022-10-14T17:29:23.359Z,73.64
2022-10-14T17:31:52.897Z,73.71
2022-10-14T17:34:21.204Z,74.14
2022-10-14T17:36:50.316Z,74.33
2022-10-14T17:39:25.851Z,74.31
2022-10-14T17:41:58.077Z,74.56
2022-10-14T17:44:26.831Z,74.45
2022-10-14T17:46:55.368Z,74.60
2022-10-14T17:49:23.755Z,74.61
2022-10-14T17:51:52.012Z,74.72
2022-10-14T17:54:20.517Z,74.77
2022-10-14T17:56:48.688Z,74.95
2022-10-14T17:59:16.923Z,75.14
2022-10-14T18:04:33.746Z,75.24
2022-10-14T18:07:01.971Z,75.21
2022-10-14T18:09:30.228Z,75.32
2022-10-14T18:12:13.737Z,75.30
2022-10-14T18:14:42.975Z,75.45
2022-10-14T18:17:12.875Z,75.49
2022-10-14T18:19:42.068Z,75.56
2022-10-14T18:22:11.396Z,75.47
2022-10-14T18:24:39.874Z,75.63
2022-10-14T18:27:08.234Z,75.69
2022-10-14T18:29:36.452Z,75.85
2022-10-14T18:32:05.891Z,76.23
2022-10-14T18:34:34.206Z,76.16
2022-10-14T18:37:02.534Z,76.40
2022-10-14T18:39:30.839Z,76.37
2022-10-14T18:41:59.175Z,76.64
2022-10-14T18:44:27.413Z,76.72
2022-10-14T18:46:56.948Z,77.02
2022-10-14T18:49:25.304Z,77.19
2022-10-14T18:51:55.351Z,77.49
2022-10-14T18:54:26.764Z,77.83
2022-10-14T18:56:55.892Z,78.13
2022-10-14T18:59:24.345Z,78.42
2022-10-14T19:01:53.548Z,78.95
2022-10-14T19:04:26.950Z,79.31
2022-10-14T19:06:55.219Z,79.57
2022-10-14T19:09:29.083Z,79.65
2022-10-14T19:11:59.242Z,79.90
2022-10-14T19:14:28.947Z,80.02
2022-10-14T19:16:57.450Z,80.19
2022-10-14T19:19:25.802Z,80.52
2022-10-14T19:21:56.403Z,80.53
2022-10-14T19:24:24.795Z,80.84
2022-10-14T19:26:54.323Z,80.79
2022-10-14T19:29:30.359Z,80.84
2022-10-14T19:31:59.303Z,80.86
2022-10-14T19:34:28.352Z,81.05
2022-10-14T19:36:56.676Z,81.24
2022-10-14T19:39:24.874Z,81.25
2022-10-14T19:41:53.092Z,81.46
2022-10-14T19:44:21.370Z,81.60
2022-10-14T19:46:49.860Z,81.63
2022-10-14T19:49:18.196Z,81.80
2022-10-14T19:51:46.680Z,81.82
2022-10-14T19:54:15.122Z,82.02
2022-10-14T19:56:43.500Z,82.12
2022-10-14T19:59:14.629Z,82.25
2022-10-14T20:01:43.022Z,82.35
2022-10-14T20:04:11.815Z,82.45
2022-10-14T20:06:40.895Z,82.52
2022-10-14T20:09:12.261Z,82.51
2022-10-14T20:11:43.094Z,82.87
2022-10-14T20:14:11.467Z,82.95
2022-10-14T20:16:40.063Z,83.00
2022-10-14T20:19:09.052Z,83.08
2022-10-14T20:21:37.537Z,83.03
2022-10-14T20:24:06.937Z,83.16
2022-10-14T20:26:37.570Z,83.20
2022-10-14T20:29:06.043Z,83.26
2022-10-14T20:31:34.993Z,83.31
2022-10-14T20:34:07.275Z,83.42
2022-10-14T20:36:40.139Z,83.50
2022-10-14T20:39:08.516Z,83.64
2022-10-14T20:41:36.842Z,83.89
2022-10-14T20:44:05.651Z,84.00
2022-10-14T20:46:33.969Z,84.07
2022-10-14T20:49:02.246Z,84.12
2022-10-14T20:51:30.709Z,84.01
2022-10-14T20:54:03.754Z,84.27
2022-10-14T20:56:35.173Z,84.38
2022-10-14T20:59:05.857Z,84.51
2022-10-14T21:01:36.346Z,84.56
2022-10-14T21:04:07.380Z,84.61
2022-10-14T21:06:36.667Z,84.58
2022-10-14T21:09:05.398Z,84.72
2022-10-14T21:11:33.782Z,84.87
2022-10-14T21:14:02.168Z,84.84
2022-10-14T21:16:32.707Z,84.79
2022-10-14T21:19:04.126Z,84.99
2022-10-14T21:21:41.339Z,85.12
2022-10-14T21:24:13.912Z,85.07
2022-10-14T21:26:42.260Z,85.24
2022-10-14T21:29:10.716Z,85.21
2022-10-14T21:31:39.121Z,85.49
2022-10-14T21:34:07.338Z,85.60
2022-10-14T21:36:35.678Z,85.43
2022-10-14T21:39:13.077Z,85.67
2022-10-14T21:41:42.958Z,85.65
2022-10-14T21:44:15.447Z,85.76
2022-10-14T21:46:43.903Z,85.88
2022-10-14T21:49:12.561Z,85.92
2022-10-14T21:51:40.862Z,86.12
2022-10-14T21:54:12.357Z,85.97
2022-10-14T21:56:40.709Z,86.18
2022-10-14T21:59:09.994Z,86.25
2022-10-14T22:01:38.382Z,86.33
2022-10-14T22:04:06.742Z,86.30
2022-10-14T22:06:36.248Z,86.45
2022-10-14T22:09:07.045Z,86.57
2022-10-14T22:11:41.108Z,86.93
2022-10-14T22:14:17.470Z,86.82
2022-10-14T22:16:47.312Z,86.90
2022-10-14T22:19:15.968Z,87.07
2022-10-14T22:21:46.461Z,87.15
2022-10-14T22:24:14.783Z,87.26
2022-10-14T22:26:43.150Z,87.08
2022-10-14T22:29:16.353Z,87.07
2022-10-14T22:31:45.913Z,87.22
2022-10-14T22:34:16.998Z,86.95
2022-10-14T22:36:45.512Z,87.08
2022-10-14T22:39:16.308Z,86.95
2022-10-14T22:41:45.188Z,86.99
2022-10-14T22:44:13.468Z,87.02
2022-10-14T22:46:41.949Z,86.94
2022-10-14T22:49:10.496Z,86.92
2022-10-14T22:51:40.853Z,87.02
2022-10-14T22:54:10.076Z,87.03
2022-10-14T22:56:38.666Z,87.17
2022-10-14T22:59:09.891Z,87.14
2022-10-14T23:01:40.048Z,87.13
2022-10-14T23:04:09.403Z,86.90
2022-10-14T23:06:38.807Z,87.15
2022-10-14T23:09:06.999Z,87.18
2022-10-14T23:11:35.208Z,87.31
2022-10-14T23:14:06.314Z,87.48
2022-10-14T23:16:35.843Z,87.33
2022-10-14T23:19:04.304Z,87.42
2022-10-14T23:21:35.387Z,87.83
2022-10-14T23:24:07.299Z,87.68
2022-10-14T23:26:36.597Z,87.67
2022-10-14T23:29:10.080Z,87.88
2022-10-14T23:31:40.077Z,88.11
2022-10-14T23:34:12.203Z,88.13
2022-10-14T23:36:40.951Z,88.28
2022-10-14T23:39:10.101Z,88.05
2022-10-14T23:41:38.653Z,88.29
2022-10-14T23:44:06.960Z,88.29
2022-10-14T23:46:35.179Z,88.21
2022-10-14T23:49:07.721Z,88.07
2022-10-14T23:51:49.861Z,88.43
2022-10-14T23:54:18.063Z,88.53
2022-10-14T23:56:46.232Z,88.65
2022-10-14T23:59:14.615Z,88.56
